Time;durP1;ratioP1;P1;durP2;ratioP2;P2;SDS_P1;SDS_P2;PMS_P1;PMS_P2;Temp;Humidity;BMP_temperature;BMP_pressure;BME280_temperature;BME280_humidity;BME280_pressure;Samples;Min_cycle;Max_cycle;Signal;HPM_P1;HPM_P2
2023/12/13 00:01:35;;;;;;;;;;;9.90;99.90;;;;;;6334944;22;19904;-79
2023/12/13 00:04:00;;;;;;;;;;;9.90;99.90;;;;;;6336781;22;19930;-79
2023/12/13 00:06:26;;;;;;;;;;;10.00;99.90;;;;;;6338729;22;19903;-79
2023/12/13 00:08:52;;;;;;;;;;;9.90;99.90;;;;;;6311367;22;19899;-80
2023/12/13 00:11:17;;;;;;;;;;;9.90;99.90;;;;;;6338991;22;19898;-80
2023/12/13 00:13:44;;;;;;;;;;;9.90;99.90;;;;;;6338007;22;19959;-80
2023/12/13 00:16:10;;;;;;;;;;;9.90;99.90;;;;;;6339287;22;19898;-79
2023/12/13 00:18:36;;;;;;;;;;;10.00;99.90;;;;;;6339354;22;20305;-79
2023/12/13 00:21:02;;;;;;;;;;;10.00;99.90;;;;;;6311210;22;19955;-79
2023/12/13 00:23:28;;;;;;;;;;;10.10;99.90;;;;;;6339236;22;19899;-80
2023/12/13 00:25:54;;;;;;;;;;;10.10;99.90;;;;;;6338646;22;19926;-80
2023/12/13 00:28:19;;;;;;;;;;;10.00;99.90;;;;;;6338564;22;19899;-80
2023/12/13 00:30:45;;;;;;;;;;;10.00;99.90;;;;;;6338910;22;19937;-80
2023/12/13 00:33:11;;;;;;;;;;;10.00;99.90;;;;;;6338160;22;19903;-79
2023/12/13 00:35:37;;;;;;;;;;;10.00;99.90;;;;;;6338269;22;19981;-79
2023/12/13 00:38:03;;;;;;;;;;;10.00;99.90;;;;;;6310572;22;19937;-79
2023/12/13 00:40:29;;;;;;;;;;;10.00;99.90;;;;;;6338904;22;19898;-79
2023/12/13 00:42:55;;;;;;;;;;;9.90;99.90;;;;;;6339124;22;19910;-79
2023/12/13 00:45:21;;;;;;;;;;;9.90;99.90;;;;;;6338955;22;19990;-79
2023/12/13 00:47:47;;;;;;;;;;;9.90;99.90;;;;;;6338639;22;19941;-78
2023/12/13 00:50:13;;;;;;;;;;;9.90;99.90;;;;;;6338716;22;19960;-79
2023/12/13 00:52:38;;;;;;;;;;;9.90;99.90;;;;;;6338803;22;20335;-79
2023/12/13 00:55:04;;;;;;;;;;;9.90;99.90;;;;;;6311039;22;19934;-79
2023/12/13 00:57:30;;;;;;;;;;;9.90;99.90;;;;;;6338548;22;20313;-78
2023/12/13 00:59:55;;;;;;;;;;;9.90;99.90;;;;;;6338749;22;19899;-78
2023/12/13 01:02:21;;;;;;;;;;;10.00;99.90;;;;;;6310699;22;19938;-79
2023/12/13 01:04:46;;;;;;;;;;;9.90;99.90;;;;;;6338877;22;19898;-79
2023/12/13 01:07:12;;;;;;;;;;;10.00;99.90;;;;;;6312018;22;19902;-79
2023/12/13 01:09:41;;;;;;;;;;;10.00;99.90;;;;;;6340492;22;19903;-79
2023/12/13 01:12:06;;;;;;;;;;;10.10;99.90;;;;;;6340260;22;19898;-78
2023/12/13 01:14:34;;;;;;;;;;;10.10;99.90;;;;;;6340503;22;20331;-79
2023/12/13 01:17:00;;;;;;;;;;;10.10;99.90;;;;;;6340522;22;20236;-78
2023/12/13 01:19:26;;;;;;;;;;;10.10;99.90;;;;;;6340428;22;19899;-78
2023/12/13 01:21:51;;;;;;;;;;;10.10;99.90;;;;;;6339849;22;20270;-79
2023/12/13 01:24:17;;;;;;;;;;;10.10;99.90;;;;;;6312493;22;19905;-79
2023/12/13 01:26:43;;;;;;;;;;;10.20;99.90;;;;;;6340197;22;19914;-79
2023/12/13 01:29:08;;;;;;;;;;;10.10;99.90;;;;;;6340302;22;19910;-79
2023/12/13 01:31:37;;;;;;;;;;;10.10;99.90;;;;;;6340568;22;19905;-79
2023/12/13 01:34:03;;;;;;;;;;;10.20;99.90;;;;;;6339540;22;19964;-80
2023/12/13 01:36:28;;;;;;;;;;;10.20;99.90;;;;;;6340223;22;19898;-80
2023/12/13 01:38:54;;;;;;;;;;;10.10;99.90;;;;;;6312684;22;19934;-80
2023/12/13 01:41:20;;;;;;;;;;;10.20;99.90;;;;;;6340398;22;19959;-80
2023/12/13 01:43:45;;;;;;;;;;;10.20;99.90;;;;;;6339778;22;19982;-80
2023/12/13 01:46:15;;;;;;;;;;;10.20;99.90;;;;;;6340510;22;19898;-80
2023/12/13 01:48:41;;;;;;;;;;;10.20;99.90;;;;;;6339443;22;19963;-80
2023/12/13 01:51:07;;;;;;;;;;;10.20;99.90;;;;;;6339802;22;19929;-80
2023/12/13 01:53:33;;;;;;;;;;;10.20;99.90;;;;;;6340128;22;20274;-80
2023/12/13 01:55:59;;;;;;;;;;;10.10;99.90;;;;;;6340018;22;20233;-81
2023/12/13 01:58:25;;;;;;;;;;;10.10;99.90;;;;;;6340427;22;19926;-79
2023/12/13 02:00:51;;;;;;;;;;;10.10;99.90;;;;;;6340242;22;20210;-79
2023/12/13 02:03:17;;;;;;;;;;;10.00;99.90;;;;;;6339559;22;19898;-80
2023/12/13 02:05:44;;;;;;;;;;;9.90;99.90;;;;;;6339695;22;19905;-79
2023/12/13 02:08:09;;;;;;;;;;;9.80;99.90;;;;;;6339907;22;19903;-79
2023/12/13 02:10:35;;;;;;;;;;;9.80;99.90;;;;;;6339285;22;19973;-79
2023/12/13 02:13:01;;;;;;;;;;;9.80;99.90;;;;;;6339452;22;20348;-79
2023/12/13 02:15:26;;;;;;;;;;;9.80;99.90;;;;;;6339221;22;19898;-79
2023/12/13 02:17:52;;;;;;;;;;;9.80;99.90;;;;;;6339651;22;19898;-79
2023/12/13 02:20:18;;;;;;;;;;;9.90;99.90;;;;;;6339243;22;20261;-80
2023/12/13 02:22:44;;;;;;;;;;;9.80;99.90;;;;;;6339424;22;19933;-79
2023/12/13 02:25:17;;;;;;;;;;;9.70;99.90;;;;;;6339578;22;19973;-81
2023/12/13 02:27:43;;;;;;;;;;;9.70;99.90;;;;;;6339317;22;20016;-81
2023/12/13 02:30:09;;;;;;;;;;;9.70;99.90;;;;;;6339697;22;19979;-81
2023/12/13 02:32:34;;;;;;;;;;;9.70;99.90;;;;;;6339476;22;19949;-81
2023/12/13 02:35:00;;;;;;;;;;;9.70;99.90;;;;;;6339309;22;19902;-81
2023/12/13 02:37:26;;;;;;;;;;;9.70;99.90;;;;;;6340026;22;19899;-81
2023/12/13 02:39:51;;;;;;;;;;;9.80;99.90;;;;;;6311846;22;20024;-80
2023/12/13 02:42:17;;;;;;;;;;;9.80;99.90;;;;;;6339275;22;19926;-80
2023/12/13 02:44:43;;;;;;;;;;;9.80;99.90;;;;;;6339919;22;19905;-81
2023/12/13 02:47:11;;;;;;;;;;;9.90;99.90;;;;;;6312114;22;20215;-81
2023/12/13 02:49:37;;;;;;;;;;;9.90;99.90;;;;;;6339158;22;19951;-80
2023/12/13 02:52:02;;;;;;;;;;;9.90;99.90;;;;;;6311815;22;19899;-80
2023/12/13 02:54:28;;;;;;;;;;;9.90;99.90;;;;;;6339637;22;19902;-81
2023/12/13 02:56:53;;;;;;;;;;;9.90;99.90;;;;;;6339881;22;19899;-81
2023/12/13 02:59:19;;;;;;;;;;;9.90;99.90;;;;;;6339153;22;19898;-80
2023/12/13 03:01:44;;;;;;;;;;;9.80;99.90;;;;;;6339566;22;20267;-78
2023/12/13 03:04:10;;;;;;;;;;;9.70;99.90;;;;;;6339711;22;19899;-79
2023/12/13 03:06:36;;;;;;;;;;;9.70;99.90;;;;;;6339714;22;19898;-79
2023/12/13 03:09:01;;;;;;;;;;;9.70;99.90;;;;;;6339621;22;19899;-79
2023/12/13 03:11:27;;;;;;;;;;;9.70;99.90;;;;;;6339371;22;19921;-78
2023/12/13 03:13:53;;;;;;;;;;;9.70;99.90;;;;;;6339231;22;19937;-78
2023/12/13 03:16:18;;;;;;;;;;;9.70;99.90;;;;;;6339752;22;19905;-79
2023/12/13 03:18:44;;;;;;;;;;;9.60;99.90;;;;;;6339056;22;19898;-79
2023/12/13 03:21:09;;;;;;;;;;;9.70;99.90;;;;;;6339268;22;19973;-78
2023/12/13 03:23:35;;;;;;;;;;;9.70;99.90;;;;;;6311638;22;19905;-79
2023/12/13 03:26:01;;;;;;;;;;;9.70;99.90;;;;;;6339104;22;19902;-80
2023/12/13 03:28:26;;;;;;;;;;;9.60;99.90;;;;;;6312131;22;19905;-80
2023/12/13 03:30:52;;;;;;;;;;;9.60;99.90;;;;;;6338994;22;19977;-79
2023/12/13 03:33:18;;;;;;;;;;;9.50;99.90;;;;;;6339404;22;19902;-79
2023/12/13 03:35:43;;;;;;;;;;;9.50;99.90;;;;;;6339456;22;20270;-80
2023/12/13 03:38:09;;;;;;;;;;;9.50;99.90;;;;;;6339535;22;19910;-79
2023/12/13 03:40:34;;;;;;;;;;;9.50;99.90;;;;;;6338892;22;20383;-79
2023/12/13 03:43:00;;;;;;;;;;;9.50;99.90;;;;;;6339332;22;19898;-79
2023/12/13 03:45:26;;;;;;;;;;;9.50;99.90;;;;;;6339740;22;19898;-79
2023/12/13 03:47:51;;;;;;;;;;;9.50;99.90;;;;;;6311104;22;20036;-80
2023/12/13 03:50:17;;;;;;;;;;;9.40;99.90;;;;;;6338851;22;19898;-80
2023/12/13 03:52:42;;;;;;;;;;;9.40;99.90;;;;;;6339044;22;20296;-79
2023/12/13 03:55:08;;;;;;;;;;;9.40;99.90;;;;;;6339251;22;20309;-79
2023/12/13 03:57:34;;;;;;;;;;;9.50;99.90;;;;;;6338918;22;20215;-78
2023/12/13 03:59:59;;;;;;;;;;;9.50;99.90;;;;;;6339305;22;19898;-79
2023/12/13 04:02:25;;;;;;;;;;;9.50;99.90;;;;;;6339036;22;19920;-79
2023/12/13 04:04:51;;;;;;;;;;;9.50;99.90;;;;;;6339334;22;20189;-79
2023/12/13 04:07:17;;;;;;;;;;;9.50;99.90;;;;;;6339130;22;20499;-79
2023/12/13 04:09:43;;;;;;;;;;;9.50;99.90;;;;;;6339436;22;20347;-79
2023/12/13 04:12:08;;;;;;;;;;;9.50;99.90;;;;;;6339147;22;20201;-79
2023/12/13 04:14:34;;;;;;;;;;;9.50;99.90;;;;;;6339186;22;19929;-79
2023/12/13 04:17:00;;;;;;;;;;;9.50;99.90;;;;;;6339136;22;20418;-78
2023/12/13 04:19:25;;;;;;;;;;;9.50;99.90;;;;;;6339231;22;20213;-78
2023/12/13 04:21:51;;;;;;;;;;;9.50;99.90;;;;;;6338978;22;19994;-77
2023/12/13 04:24:16;;;;;;;;;;;9.40;99.90;;;;;;6339035;22;19906;-77
2023/12/13 04:26:42;;;;;;;;;;;9.40;99.90;;;;;;6338545;22;19899;-78
2023/12/13 04:29:07;;;;;;;;;;;9.40;99.90;;;;;;6338342;22;19905;-78
2023/12/13 04:31:33;;;;;;;;;;;9.40;99.90;;;;;;6338707;22;19906;-78
2023/12/13 04:33:58;;;;;;;;;;;9.40;99.90;;;;;;6339141;22;19910;-78
2023/12/13 04:36:24;;;;;;;;;;;9.40;99.90;;;;;;6339012;22;19898;-78
2023/12/13 04:38:50;;;;;;;;;;;9.50;99.90;;;;;;6338729;22;19922;-78
2023/12/13 04:41:15;;;;;;;;;;;9.50;99.90;;;;;;6338969;22;19898;-78
2023/12/13 04:43:41;;;;;;;;;;;9.50;99.90;;;;;;6340822;22;19899;-79
2023/12/13 04:46:06;;;;;;;;;;;9.50;99.90;;;;;;6340446;22;19951;-78
2023/12/13 04:48:32;;;;;;;;;;;9.50;99.90;;;;;;6340811;22;19960;-78
2023/12/13 04:50:57;;;;;;;;;;;9.50;99.90;;;;;;6341229;22;20201;-79
2023/12/13 04:53:23;;;;;;;;;;;9.50;99.90;;;;;;6340073;22;20003;-79
2023/12/13 04:55:48;;;;;;;;;;;9.50;99.90;;;;;;6340857;22;19905;-79
2023/12/13 04:58:14;;;;;;;;;;;9.50;99.90;;;;;;6339565;22;19922;-79
2023/12/13 05:00:39;;;;;;;;;;;9.50;99.90;;;;;;6339140;22;19921;-78
2023/12/13 05:03:05;;;;;;;;;;;9.50;99.90;;;;;;6340817;22;20337;-79
2023/12/13 05:05:31;;;;;;;;;;;9.50;99.90;;;;;;6340388;22;19977;-78
2023/12/13 05:07:56;;;;;;;;;;;9.50;99.90;;;;;;6340859;22;19981;-78
2023/12/13 05:10:22;;;;;;;;;;;9.50;99.90;;;;;;6340963;22;19898;-78
2023/12/13 05:12:48;;;;;;;;;;;9.50;99.90;;;;;;6340850;22;19899;-78
2023/12/13 05:15:13;;;;;;;;;;;9.50;99.90;;;;;;6340170;22;20376;-78
2023/12/13 05:17:39;;;;;;;;;;;9.40;99.90;;;;;;6312085;22;20182;-78
2023/12/13 05:20:05;;;;;;;;;;;9.40;99.90;;;;;;6340138;22;19994;-78
2023/12/13 05:22:30;;;;;;;;;;;9.40;99.90;;;;;;6340103;22;20005;-79
2023/12/13 05:24:56;;;;;;;;;;;9.40;99.90;;;;;;6339208;22;20197;-78
2023/12/13 05:27:21;;;;;;;;;;;9.40;99.90;;;;;;6340324;22;20269;-78
2023/12/13 05:29:47;;;;;;;;;;;9.40;99.90;;;;;;6312199;22;20301;-79
2023/12/13 05:32:12;;;;;;;;;;;9.40;99.90;;;;;;6340146;22;19933;-79
2023/12/13 05:34:38;;;;;;;;;;;9.40;99.90;;;;;;6311869;22;19902;-78
2023/12/13 05:37:05;;;;;;;;;;;9.50;99.90;;;;;;6338474;22;19905;-78
2023/12/13 05:39:31;;;;;;;;;;;9.40;99.90;;;;;;6339078;22;19899;-79
2023/12/13 05:41:57;;;;;;;;;;;9.40;99.90;;;;;;6312752;22;20197;-79
2023/12/13 05:44:22;;;;;;;;;;;9.40;99.90;;;;;;6340352;22;19899;-79
2023/12/13 05:46:48;;;;;;;;;;;9.40;99.90;;;;;;6340218;22;19952;-79
2023/12/13 05:49:13;;;;;;;;;;;9.40;99.90;;;;;;6340216;22;19985;-79
2023/12/13 05:51:39;;;;;;;;;;;9.40;99.90;;;;;;6312372;22;19898;-79
2023/12/13 05:54:05;;;;;;;;;;;9.40;99.90;;;;;;6340146;22;19906;-78
2023/12/13 05:56:30;;;;;;;;;;;9.40;99.90;;;;;;6339865;22;19898;-78
2023/12/13 05:58:56;;;;;;;;;;;9.50;99.90;;;;;;6339356;22;19899;-78
2023/12/13 06:01:22;;;;;;;;;;;9.50;99.90;;;;;;6339229;22;19906;-79
2023/12/13 06:03:47;;;;;;;;;;;9.50;99.90;;;;;;6338406;22;20236;-79
2023/12/13 06:06:13;;;;;;;;;;;9.50;99.90;;;;;;6339200;22;19899;-80
2023/12/13 06:08:39;;;;;;;;;;;9.50;99.90;;;;;;6340780;22;19899;-78
2023/12/13 06:11:04;;;;;;;;;;;9.50;99.90;;;;;;6340428;22;20246;-80
2023/12/13 06:13:30;;;;;;;;;;;9.60;99.90;;;;;;6311748;22;19908;-82
2023/12/13 06:15:56;;;;;;;;;;;9.60;99.90;;;;;;6310963;22;19932;-82
2023/12/13 06:18:21;;;;;;;;;;;9.60;99.90;;;;;;6336951;22;19902;-81
2023/12/13 06:20:47;;;;;;;;;;;9.60;99.90;;;;;;6338258;22;19899;-82
2023/12/13 06:23:12;;;;;;;;;;;9.70;99.90;;;;;;6338758;22;19899;-81
2023/12/13 06:25:38;;;;;;;;;;;9.70;99.90;;;;;;6339149;22;19899;-80
2023/12/13 06:28:04;;;;;;;;;;;9.80;99.90;;;;;;6339961;22;19898;-79
2023/12/13 06:30:30;;;;;;;;;;;9.90;99.90;;;;;;6340031;22;19898;-81
2023/12/13 06:32:55;;;;;;;;;;;9.90;99.90;;;;;;6340360;22;19948;-82
2023/12/13 06:35:21;;;;;;;;;;;9.90;99.90;;;;;;6340712;22;20296;-82
2023/12/13 06:37:46;;;;;;;;;;;9.90;99.90;;;;;;6312609;22;19906;-82
2023/12/13 06:40:15;;;;;;;;;;;9.90;99.90;;;;;;6340133;22;19899;-81
2023/12/13 06:42:41;;;;;;;;;;;9.90;99.90;;;;;;6340332;22;19899;-82
2023/12/13 06:45:07;;;;;;;;;;;9.90;99.90;;;;;;6340344;22;19899;-82
2023/12/13 06:47:33;;;;;;;;;;;9.80;99.90;;;;;;6340103;22;19914;-81
2023/12/13 06:49:58;;;;;;;;;;;9.90;99.90;;;;;;6339565;22;19906;-81
2023/12/13 06:52:24;;;;;;;;;;;9.90;99.90;;;;;;6340162;22;19899;-81
2023/12/13 06:54:49;;;;;;;;;;;9.80;99.90;;;;;;6340086;22;19902;-81
2023/12/13 06:57:16;;;;;;;;;;;9.90;99.90;;;;;;6340570;22;19940;-81
2023/12/13 06:59:42;;;;;;;;;;;9.80;99.90;;;;;;6340300;22;19948;-81
2023/12/13 07:02:07;;;;;;;;;;;9.80;99.90;;;;;;6340244;22;19902;-81
2023/12/13 07:04:35;;;;;;;;;;;9.80;99.90;;;;;;6339642;22;19924;-81
2023/12/13 07:07:00;;;;;;;;;;;9.80;99.90;;;;;;6340377;22;19951;-81
2023/12/13 07:09:26;;;;;;;;;;;9.70;99.90;;;;;;6312197;22;19902;-81
2023/12/13 07:11:51;;;;;;;;;;;9.70;99.90;;;;;;6340025;22;19909;-81
2023/12/13 07:14:17;;;;;;;;;;;9.70;99.90;;;;;;6339615;22;19916;-81
2023/12/13 07:16:43;;;;;;;;;;;9.70;99.90;;;;;;6339793;22;19926;-81
2023/12/13 07:19:09;;;;;;;;;;;9.80;99.90;;;;;;6338644;22;19902;-81
2023/12/13 07:21:34;;;;;;;;;;;9.80;99.90;;;;;;6339621;22;19948;-81
2023/12/13 07:24:00;;;;;;;;;;;9.80;99.90;;;;;;6339667;22;19899;-81
2023/12/13 07:26:25;;;;;;;;;;;9.70;99.90;;;;;;6339498;22;19906;-81
2023/12/13 07:28:51;;;;;;;;;;;9.80;99.90;;;;;;6339722;22;19898;-81
2023/12/13 07:31:16;;;;;;;;;;;9.80;99.90;;;;;;6340061;22;19898;-82
2023/12/13 07:33:42;;;;;;;;;;;9.80;99.90;;;;;;6339874;22;19926;-81
2023/12/13 07:36:08;;;;;;;;;;;9.80;99.90;;;;;;6340019;22;19953;-81
2023/12/13 07:38:33;;;;;;;;;;;9.80;99.90;;;;;;6339448;22;19898;-81
2023/12/13 07:40:59;;;;;;;;;;;9.80;99.90;;;;;;6339803;22;19898;-81
2023/12/13 07:43:26;;;;;;;;;;;9.90;99.90;;;;;;6312055;22;19997;-82
2023/12/13 07:45:52;;;;;;;;;;;9.90;99.90;;;;;;6312338;22;20294;-82
2023/12/13 07:48:19;;;;;;;;;;;9.90;99.90;;;;;;6311421;22;19914;-82
2023/12/13 07:50:44;;;;;;;;;;;9.90;99.90;;;;;;6339627;22;20220;-82
2023/12/13 07:53:10;;;;;;;;;;;9.90;99.90;;;;;;6339820;22;19929;-81
2023/12/13 07:55:35;;;;;;;;;;;9.90;99.90;;;;;;6339501;22;19899;-81
2023/12/13 07:58:01;;;;;;;;;;;9.90;99.90;;;;;;6339616;22;20241;-81
2023/12/13 08:00:27;;;;;;;;;;;9.90;99.90;;;;;;6339551;22;20307;-81
2023/12/13 08:02:53;;;;;;;;;;;9.80;99.90;;;;;;6339497;22;20293;-82
2023/12/13 08:05:20;;;;;;;;;;;9.80;99.90;;;;;;6339044;22;19898;-81
2023/12/13 08:07:46;;;;;;;;;;;9.90;99.90;;;;;;6312137;22;19969;-82
2023/12/13 08:10:11;;;;;;;;;;;9.90;99.90;;;;;;6339658;22;19942;-81
2023/12/13 08:12:37;;;;;;;;;;;9.90;99.90;;;;;;6339775;22;19902;-81
2023/12/13 08:15:05;;;;;;;;;;;9.90;99.90;;;;;;6339360;22;19903;-81
2023/12/13 08:17:31;;;;;;;;;;;10.00;99.90;;;;;;6339278;22;19903;-81
2023/12/13 08:19:56;;;;;;;;;;;10.00;99.90;;;;;;6339535;22;19906;-81
2023/12/13 08:22:22;;;;;;;;;;;10.00;99.90;;;;;;6339610;22;20292;-81
2023/12/13 08:24:47;;;;;;;;;;;10.00;99.90;;;;;;6311934;22;19985;-81
2023/12/13 08:27:13;;;;;;;;;;;10.00;99.90;;;;;;6339614;22;19922;-81
2023/12/13 08:29:38;;;;;;;;;;;10.00;99.90;;;;;;6339549;22;20311;-81
2023/12/13 08:32:06;;;;;;;;;;;10.00;99.90;;;;;;6339415;22;20301;-81
2023/12/13 08:34:32;;;;;;;;;;;10.00;99.90;;;;;;6339241;22;20241;-81
2023/12/13 08:36:58;;;;;;;;;;;10.00;99.90;;;;;;6339558;22;20019;-81
2023/12/13 08:39:23;;;;;;;;;;;10.00;99.90;;;;;;6339337;22;19899;-81
2023/12/13 08:41:49;;;;;;;;;;;10.00;99.90;;;;;;6339649;22;19902;-81
2023/12/13 08:44:15;;;;;;;;;;;9.90;99.90;;;;;;6339249;22;20313;-81
2023/12/13 08:46:40;;;;;;;;;;;9.90;99.90;;;;;;6339704;22;20201;-81
2023/12/13 08:49:06;;;;;;;;;;;9.90;99.90;;;;;;6339051;22;19910;-81
2023/12/13 08:51:31;;;;;;;;;;;9.90;99.90;;;;;;6339559;22;19963;-81
2023/12/13 08:53:57;;;;;;;;;;;9.90;99.90;;;;;;6339474;22;20281;-81
2023/12/13 08:56:22;;;;;;;;;;;9.90;99.90;;;;;;6339325;22;20312;-81
2023/12/13 08:58:48;;;;;;;;;;;10.00;99.90;;;;;;6311443;22;19922;-82
2023/12/13 09:01:14;;;;;;;;;;;10.00;99.90;;;;;;6338655;22;19903;-81
2023/12/13 09:03:40;;;;;;;;;;;10.00;99.90;;;;;;6338979;22;20297;-82
2023/12/13 09:06:06;;;;;;;;;;;10.00;99.90;;;;;;6338974;22;19898;-84
2023/12/13 09:08:32;;;;;;;;;;;10.00;99.90;;;;;;6338579;22;19902;-81
2023/12/13 09:10:57;;;;;;;;;;;10.00;99.90;;;;;;6339014;22;19902;-80
2023/12/13 09:13:24;;;;;;;;;;;10.00;99.90;;;;;;6338803;22;19902;-78
2023/12/13 09:15:49;;;;;;;;;;;10.00;99.90;;;;;;6338035;22;20360;-78
2023/12/13 09:18:15;;;;;;;;;;;10.00;99.90;;;;;;6337236;22;19905;-81
2023/12/13 09:20:40;;;;;;;;;;;10.00;99.90;;;;;;6338805;22;20236;-81
2023/12/13 09:23:06;;;;;;;;;;;10.00;99.90;;;;;;6338969;22;19921;-81
2023/12/13 09:25:32;;;;;;;;;;;10.00;99.90;;;;;;6338283;22;19942;-81
2023/12/13 09:27:57;;;;;;;;;;;10.00;99.90;;;;;;6311828;22;19906;-81
2023/12/13 09:30:23;;;;;;;;;;;10.00;99.90;;;;;;6340137;22;19898;-81
2023/12/13 09:32:49;;;;;;;;;;;9.90;99.90;;;;;;6340176;22;19902;-81
2023/12/13 09:35:14;;;;;;;;;;;9.90;99.90;;;;;;6338746;22;19903;-81
2023/12/13 09:37:41;;;;;;;;;;;10.00;99.90;;;;;;6312594;22;19905;-80
2023/12/13 09:40:12;;;;;;;;;;;10.00;99.90;;;;;;6340261;22;19949;-81
2023/12/13 09:42:40;;;;;;;;;;;10.00;99.90;;;;;;6340251;22;19898;-80
2023/12/13 09:45:06;;;;;;;;;;;10.00;99.90;;;;;;6340086;22;19898;-80
2023/12/13 09:47:32;;;;;;;;;;;10.00;99.90;;;;;;6340356;22;19980;-81
2023/12/13 09:49:58;;;;;;;;;;;10.00;99.90;;;;;;6340782;22;19902;-81
2023/12/13 09:52:26;;;;;;;;;;;10.10;99.90;;;;;;6341004;22;19902;-81
2023/12/13 09:54:52;;;;;;;;;;;10.10;99.90;;;;;;6313338;22;19902;-81
2023/12/13 09:57:18;;;;;;;;;;;10.10;99.90;;;;;;6339997;22;19977;-81
2023/12/13 09:59:45;;;;;;;;;;;10.10;99.90;;;;;;6340243;22;19933;-81
2023/12/13 10:02:16;;;;;;;;;;;10.00;99.90;;;;;;6340207;22;19898;-81
2023/12/13 10:04:43;;;;;;;;;;;10.00;99.90;;;;;;6339837;22;19903;-81
2023/12/13 10:07:09;;;;;;;;;;;10.00;99.90;;;;;;6311141;22;19910;-81
2023/12/13 10:09:34;;;;;;;;;;;10.00;99.90;;;;;;6338984;22;19906;-80
2023/12/13 10:12:00;;;;;;;;;;;10.00;99.90;;;;;;6339427;22;20364;-80
2023/12/13 10:14:26;;;;;;;;;;;10.00;99.90;;;;;;6339028;22;20330;-80
2023/12/13 10:16:52;;;;;;;;;;;10.00;99.90;;;;;;6339760;22;19903;-80
2023/12/13 10:19:18;;;;;;;;;;;10.00;99.90;;;;;;6340088;22;19910;-80
2023/12/13 10:21:46;;;;;;;;;;;10.00;99.90;;;;;;6312721;22;19922;-80
2023/12/13 10:24:11;;;;;;;;;;;10.00;99.90;;;;;;6339907;22;20259;-80
2023/12/13 10:26:39;;;;;;;;;;;10.00;99.90;;;;;;6339192;22;19944;-78
2023/12/13 10:29:04;;;;;;;;;;;10.00;99.90;;;;;;6339243;22;20376;-78
2023/12/13 10:31:33;;;;;;;;;;;10.10;99.90;;;;;;6340317;22;19925;-78
2023/12/13 10:33:59;;;;;;;;;;;10.00;99.90;;;;;;6338872;22;19903;-79
2023/12/13 10:36:26;;;;;;;;;;;10.00;99.90;;;;;;6340076;22;20301;-79
2023/12/13 10:38:55;;;;;;;;;;;10.00;99.90;;;;;;6339635;22;19902;-80
2023/12/13 10:41:25;;;;;;;;;;;10.00;99.90;;;;;;6338690;22;19899;-81
2023/12/13 10:43:53;;;;;;;;;;;10.10;99.90;;;;;;6338183;22;19906;-80
2023/12/13 10:46:19;;;;;;;;;;;10.10;99.90;;;;;;6339585;22;19899;-80
2023/12/13 10:48:45;;;;;;;;;;;10.10;99.90;;;;;;6339992;22;19910;-78
2023/12/13 10:51:11;;;;;;;;;;;10.10;99.90;;;;;;6339391;22;19929;-78
2023/12/13 10:53:37;;;;;;;;;;;10.10;99.90;;;;;;6339566;22;20243;-78
2023/12/13 10:56:04;;;;;;;;;;;10.20;99.90;;;;;;6336131;22;20723;-78
2023/12/13 10:58:30;;;;;;;;;;;10.20;99.90;;;;;;6338096;22;20198;-78
2023/12/13 11:00:56;;;;;;;;;;;10.20;99.90;;;;;;6339737;22;19905;-78
2023/12/13 11:03:28;;;;;;;;;;;10.20;99.90;;;;;;6339658;22;20254;-78
2023/12/13 11:05:54;;;;;;;;;;;10.20;99.90;;;;;;6339819;22;19898;-78
2023/12/13 11:08:20;;;;;;;;;;;10.20;99.90;;;;;;6339358;22;19899;-78
2023/12/13 11:11:04;;;;;;;;;;;10.30;99.90;;;;;;6339079;22;19899;-78
2023/12/13 11:13:30;;;;;;;;;;;10.30;99.90;;;;;;6338641;22;19926;-78
2023/12/13 11:15:56;;;;;;;;;;;10.30;99.90;;;;;;6339594;22;20309;-78
2023/12/13 11:18:22;;;;;;;;;;;10.30;99.90;;;;;;6339327;22;20309;-78
2023/12/13 11:20:52;;;;;;;;;;;10.40;99.90;;;;;;6339583;22;19899;-78
2023/12/13 11:23:23;;;;;;;;;;;10.40;99.90;;;;;;6339693;22;20220;-78
2023/12/13 11:25:49;;;;;;;;;;;10.40;99.90;;;;;;6339182;22;19902;-78
2023/12/13 11:28:24;;;;;;;;;;;10.50;99.90;;;;;;6339341;22;19905;-78
2023/12/13 11:30:50;;;;;;;;;;;10.50;99.90;;;;;;6339109;22;20358;-78
2023/12/13 11:33:17;;;;;;;;;;;10.50;99.90;;;;;;6339348;22;19906;-78
2023/12/13 11:35:45;;;;;;;;;;;10.50;99.90;;;;;;6339137;22;19905;-78
2023/12/13 11:38:10;;;;;;;;;;;10.60;99.90;;;;;;6339078;22;19902;-78
2023/12/13 11:40:36;;;;;;;;;;;10.60;99.90;;;;;;6339212;22;20329;-78
2023/12/13 11:43:01;;;;;;;;;;;10.60;99.90;;;;;;6338206;22;20339;-78
2023/12/13 11:45:27;;;;;;;;;;;10.60;99.90;;;;;;6339096;22;20224;-78
2023/12/13 11:47:52;;;;;;;;;;;10.60;99.90;;;;;;6285229;22;20394;-78
2023/12/13 11:50:19;;;;;;;;;;;10.60;99.90;;;;;;6277371;22;19998;-79
2023/12/13 11:52:45;;;;;;;;;;;10.60;99.90;;;;;;6277247;22;19931;-79
2023/12/13 11:55:11;;;;;;;;;;;10.50;99.90;;;;;;6276705;22;19903;-79
2023/12/13 11:57:36;;;;;;;;;;;10.50;99.90;;;;;;6276543;22;19907;-79
2023/12/13 12:00:04;;;;;;;;;;;10.50;99.90;;;;;;6277058;22;19900;-79
2023/12/13 12:02:29;;;;;;;;;;;10.50;99.90;;;;;;6276525;22;19953;-79
2023/12/13 12:04:55;;;;;;;;;;;10.50;99.90;;;;;;6276776;22;19899;-79
2023/12/13 12:07:20;;;;;;;;;;;10.50;99.90;;;;;;6276691;22;19899;-79
2023/12/13 12:09:49;;;;;;;;;;;10.50;99.90;;;;;;6276919;22;20325;-79
2023/12/13 12:12:15;;;;;;;;;;;10.50;99.90;;;;;;6275961;22;19903;-79
2023/12/13 12:14:41;;;;;;;;;;;10.50;99.90;;;;;;6274947;22;19972;-79
2023/12/13 12:17:07;;;;;;;;;;;10.50;99.90;;;;;;6275754;22;20360;-79
2023/12/13 12:19:33;;;;;;;;;;;10.50;99.90;;;;;;6276335;22;19899;-80
2023/12/13 12:22:02;;;;;;;;;;;10.50;99.90;;;;;;6276337;22;19903;-79
2023/12/13 12:24:28;;;;;;;;;;;10.50;99.90;;;;;;6276775;22;19923;-79
2023/12/13 12:26:54;;;;;;;;;;;10.50;99.90;;;;;;6276243;22;19938;-79
2023/12/13 12:29:20;;;;;;;;;;;10.50;99.90;;;;;;6274244;22;19899;-79
2023/12/13 12:31:45;;;;;;;;;;;10.50;99.90;;;;;;6250059;22;19970;-79
2023/12/13 12:34:12;;;;;;;;;;;10.50;99.90;;;;;;6276798;22;20623;-79
2023/12/13 12:36:38;;;;;;;;;;;10.50;99.90;;;;;;6277152;22;20587;-79
2023/12/13 12:39:03;;;;;;;;;;;10.50;99.90;;;;;;6277141;22;19900;-79
2023/12/13 12:41:34;;;;;;;;;;;10.50;99.90;;;;;;6275895;22;20320;-80
2023/12/13 12:44:00;;;;;;;;;;;10.50;99.90;;;;;;6275689;22;19978;-79
2023/12/13 12:46:25;;;;;;;;;;;10.50;99.90;;;;;;6275547;22;19907;-79
2023/12/13 12:48:51;;;;;;;;;;;10.50;99.90;;;;;;6274059;22;19903;-79
2023/12/13 12:51:17;;;;;;;;;;;10.50;99.90;;;;;;6275330;22;19903;-82
2023/12/13 12:53:43;;;;;;;;;;;10.50;99.90;;;;;;6275316;22;20508;-82
2023/12/13 12:56:09;;;;;;;;;;;10.50;99.90;;;;;;6275968;22;19978;-82
2023/12/13 12:58:36;;;;;;;;;;;10.50;99.90;;;;;;6276534;22;19899;-82
2023/12/13 13:01:03;;;;;;;;;;;10.60;99.90;;;;;;6276417;22;19906;-82
2023/12/13 13:03:29;;;;;;;;;;;10.50;99.90;;;;;;6277355;22;19927;-82
2023/12/13 13:05:54;;;;;;;;;;;10.50;99.90;;;;;;6277580;22;19900;-82
2023/12/13 13:08:20;;;;;;;;;;;10.50;99.90;;;;;;6277834;22;19907;-82
2023/12/13 13:10:45;;;;;;;;;;;10.60;99.90;;;;;;6251005;22;20210;-82
2023/12/13 13:13:11;;;;;;;;;;;10.60;99.90;;;;;;6278093;22;20269;-82
2023/12/13 13:15:36;;;;;;;;;;;10.60;99.90;;;;;;6278619;22;19899;-82
2023/12/13 13:18:02;;;;;;;;;;;10.60;99.90;;;;;;6278343;22;19903;-82
2023/12/13 13:20:27;;;;;;;;;;;10.60;99.90;;;;;;6278296;22;19906;-82
2023/12/13 13:22:53;;;;;;;;;;;10.60;99.90;;;;;;6277441;22;20202;-82
2023/12/13 13:25:19;;;;;;;;;;;10.70;99.90;;;;;;6277934;22;19992;-82
2023/12/13 13:27:45;;;;;;;;;;;10.70;99.90;;;;;;6277980;22;19922;-82
2023/12/13 13:30:11;;;;;;;;;;;10.70;99.90;;;;;;6278349;22;19924;-82
2023/12/13 13:32:40;;;;;;;;;;;10.70;99.90;;;;;;6278554;22;19903;-82
2023/12/13 13:35:06;;;;;;;;;;;10.70;99.90;;;;;;6251011;22;19953;-82
2023/12/13 13:37:31;;;;;;;;;;;10.70;99.90;;;;;;6251291;22;19899;-82
2023/12/13 13:39:57;;;;;;;;;;;10.70;99.90;;;;;;6277849;22;20253;-82
2023/12/13 13:42:23;;;;;;;;;;;10.70;99.90;;;;;;6278465;22;19903;-82
2023/12/13 13:44:49;;;;;;;;;;;10.70;99.90;;;;;;6251064;22;19899;-82
2023/12/13 13:47:15;;;;;;;;;;;10.70;99.90;;;;;;6278186;22;19941;-80
2023/12/13 13:49:41;;;;;;;;;;;10.70;99.90;;;;;;6277894;22;19953;-79
2023/12/13 13:52:06;;;;;;;;;;;10.80;99.90;;;;;;6277709;22;19903;-79
2023/12/13 13:54:32;;;;;;;;;;;10.70;99.90;;;;;;6277986;22;19903;-79
2023/12/13 13:56:58;;;;;;;;;;;10.70;99.90;;;;;;6278038;22;19922;-79
2023/12/13 13:59:23;;;;;;;;;;;10.70;99.90;;;;;;6277936;22;19968;-79
2023/12/13 14:01:50;;;;;;;;;;;10.70;99.90;;;;;;6277830;22;19905;-79
2023/12/13 14:04:15;;;;;;;;;;;10.60;99.90;;;;;;6277027;22;20375;-79
2023/12/13 14:06:42;;;;;;;;;;;10.60;99.90;;;;;;6277125;22;19926;-79
2023/12/13 14:09:09;;;;;;;;;;;10.60;99.90;;;;;;6277616;22;19997;-80
2023/12/13 14:11:35;;;;;;;;;;;10.60;99.90;;;;;;6277747;22;19903;-80
2023/12/13 14:14:01;;;;;;;;;;;10.60;99.90;;;;;;6251045;22;20251;-80
2023/12/13 14:16:27;;;;;;;;;;;10.60;99.90;;;;;;6278526;22;19899;-79